createdAt,value
2023-04-16T00:00:48.561Z,7.44
2023-04-16T00:06:13.932Z,7.39
2023-04-16T00:11:38.496Z,7.35
2023-04-16T00:17:03.203Z,7.30
2023-04-16T00:22:26.026Z,7.26
2023-04-16T00:27:49.111Z,7.23
2023-04-16T00:33:13.929Z,7.21
2023-04-16T00:38:39.073Z,7.17
2023-04-16T00:44:04.396Z,7.12
2023-04-16T00:49:28.713Z,7.11
2023-04-16T00:54:51.900Z,7.11
2023-04-16T01:00:15.806Z,7.09
2023-04-16T01:05:41.152Z,7.10
2023-04-16T01:11:05.086Z,7.07
2023-04-16T01:16:29.414Z,7.05
2023-04-16T01:21:51.736Z,7.02
2023-04-16T01:27:15.193Z,6.99
2023-04-16T01:32:38.572Z,6.97
2023-04-16T01:38:03.785Z,6.95
2023-04-16T01:43:28.507Z,6.94
2023-04-16T01:48:54.091Z,6.93
2023-04-16T01:54:18.114Z,6.94
2023-04-16T01:59:42.979Z,6.92
2023-04-16T02:05:07.654Z,6.91
2023-04-16T02:10:32.363Z,6.91
2023-04-16T02:15:58.156Z,6.91
2023-04-16T02:21:22.083Z,6.89
2023-04-16T02:26:46.050Z,6.86
2023-04-16T02:32:08.591Z,6.86
2023-04-16T02:37:32.635Z,6.89
2023-04-16T02:42:57.479Z,6.84
2023-04-16T02:48:20.634Z,6.82
2023-04-16T02:53:46.283Z,6.82
2023-04-16T02:59:11.333Z,6.81
2023-04-16T03:04:36.439Z,6.80
2023-04-16T03:09:59.542Z,6.78
2023-04-16T03:15:23.951Z,6.76
2023-04-16T03:20:47.714Z,6.71
2023-04-16T03:26:11.660Z,6.68
2023-04-16T03:31:36.622Z,6.70
2023-04-16T03:36:59.077Z,6.69
2023-04-16T03:42:21.375Z,6.66
2023-04-16T03:47:44.522Z,6.64
2023-04-16T03:53:06.753Z,6.63
2023-04-16T03:58:29.820Z,6.60
2023-04-16T04:03:54.194Z,6.59
2023-04-16T04:09:17.293Z,6.58
2023-04-16T04:14:42.037Z,6.57
2023-04-16T04:20:07.071Z,6.55
2023-04-16T04:25:31.384Z,6.57
2023-04-16T04:30:54.519Z,6.56
2023-04-16T04:36:18.773Z,6.56
2023-04-16T04:41:43.450Z,6.57
2023-04-16T04:47:05.703Z,6.57
2023-04-16T04:52:28.522Z,6.58
2023-04-16T04:57:50.825Z,6.60
2023-04-16T05:03:18.925Z,6.65
2023-04-16T05:08:43.928Z,6.69
2023-04-16T05:14:08.222Z,6.72
2023-04-16T05:19:31.736Z,6.75
2023-04-16T05:24:54.877Z,6.78
2023-04-16T05:30:19.659Z,6.79
2023-04-16T05:35:43.187Z,6.76
2023-04-16T05:41:07.873Z,6.83
2023-04-16T05:46:31.626Z,6.87
2023-04-16T05:51:55.524Z,6.91
2023-04-16T05:57:21.109Z,7.01
2023-04-16T06:02:44.277Z,7.02
2023-04-16T06:08:08.205Z,7.03
2023-04-16T06:13:32.289Z,7.00
2023-04-16T06:18:56.090Z,6.99
2023-04-16T06:24:18.860Z,7.01
2023-04-16T06:29:42.027Z,7.01
2023-04-16T06:35:04.652Z,7.05
2023-04-16T06:40:29.471Z,7.02
2023-04-16T06:45:54.924Z,6.98
2023-04-16T06:51:17.274Z,6.94
2023-04-16T06:56:40.681Z,6.89
2023-04-16T07:02:05.277Z,6.92
2023-04-16T07:07:27.858Z,6.96
2023-04-16T07:12:53.986Z,6.91
2023-04-16T07:18:18.773Z,6.91
2023-04-16T07:23:43.201Z,6.89
2023-04-16T07:29:07.891Z,6.93
2023-04-16T07:34:31.966Z,6.92
2023-04-16T07:39:57.954Z,6.93
2023-04-16T07:45:22.936Z,6.97
2023-04-16T07:50:45.670Z,7.02
2023-04-16T07:56:10.119Z,7.02
2023-04-16T08:01:32.822Z,7.08
2023-04-16T08:06:56.839Z,7.08
2023-04-16T08:12:22.097Z,7.11
2023-04-16T08:17:46.424Z,7.14
2023-04-16T08:23:09.588Z,7.25
2023-04-16T08:28:33.195Z,7.30
2023-04-16T08:33:58.241Z,7.34
2023-04-16T08:39:21.189Z,7.37
2023-04-16T08:44:50.545Z,7.46
2023-04-16T08:50:17.358Z,7.42
2023-04-16T08:55:46.393Z,7.43
2023-04-16T09:01:11.772Z,7.51
2023-04-16T09:06:36.693Z,7.57
2023-04-16T09:11:59.660Z,7.56
2023-04-16T09:17:23.621Z,7.61
2023-04-16T09:22:46.969Z,7.64
2023-04-16T09:28:09.430Z,7.75
2023-04-16T09:33:34.975Z,7.93
2023-04-16T09:39:11.435Z,7.93
2023-04-16T09:44:42.455Z,7.85
2023-04-16T09:50:05.680Z,7.91
2023-04-16T09:55:32.591Z,7.99
2023-04-16T10:00:54.920Z,8.11
2023-04-16T10:06:37.139Z,8.22
2023-04-16T10:12:03.113Z,8.34
2023-04-16T10:17:30.281Z,8.35
2023-04-16T10:22:53.018Z,8.40
2023-04-16T10:28:17.908Z,8.42
2023-04-16T10:33:46.999Z,8.38
2023-04-16T10:39:14.144Z,8.35
2023-04-16T10:44:37.702Z,8.37
2023-04-16T10:50:01.514Z,8.59
2023-04-16T10:55:27.035Z,8.79
2023-04-16T11:00:56.003Z,9.07
2023-04-16T11:06:38.981Z,8.83
2023-04-16T11:12:01.808Z,8.98
2023-04-16T11:17:24.654Z,9.19
2023-04-16T11:22:49.733Z,9.14
2023-04-16T11:28:13.282Z,9.09
2023-04-16T11:33:37.157Z,8.99
2023-04-16T11:38:59.472Z,8.77
2023-04-16T11:44:36.521Z,8.62
2023-04-16T11:50:00.447Z,8.61
2023-04-16T11:55:24.574Z,8.56
2023-04-16T12:00:49.692Z,8.58
2023-04-16T12:06:15.985Z,8.50
2023-04-16T12:11:48.676Z,8.48
2023-04-16T12:17:32.317Z,8.46
2023-04-16T12:23:02.002Z,8.34
2023-04-16T12:28:41.598Z,8.29
2023-04-16T12:34:10.687Z,8.43
2023-04-16T12:39:33.856Z,8.69
2023-04-16T12:44:56.209Z,8.68
2023-04-16T12:50:18.733Z,8.63
2023-04-16T12:55:42.808Z,8.57
2023-04-16T13:01:05.314Z,8.66
2023-04-16T13:06:28.835Z,8.77
2023-04-16T13:11:51.866Z,8.72
2023-04-16T13:17:16.473Z,8.75
2023-04-16T13:22:39.011Z,8.75
2023-04-16T13:28:01.499Z,8.64
2023-04-16T13:33:25.090Z,8.59
2023-04-16T13:38:49.037Z,8.54
2023-04-16T13:44:11.512Z,8.49
2023-04-16T13:49:36.095Z,8.50
2023-04-16T13:55:00.263Z,8.45
2023-04-16T14:00:23.529Z,8.40
2023-04-16T14:05:46.527Z,8.43
2023-04-16T14:11:09.535Z,8.43
2023-04-16T14:16:32.850Z,8.50
2023-04-16T14:21:55.182Z,8.48
2023-04-16T14:27:17.619Z,8.42
2023-04-16T14:32:40.114Z,8.37
2023-04-16T14:38:02.894Z,8.41
2023-04-16T14:43:25.265Z,8.43
2023-04-16T14:48:47.528Z,8.40
2023-04-16T14:54:09.991Z,8.37
2023-04-16T14:59:32.869Z,8.43
2023-04-16T15:04:55.780Z,8.41
2023-04-16T15:10:19.700Z,8.36
2023-04-16T15:15:42.036Z,8.32
2023-04-16T15:21:05.226Z,8.31
2023-04-16T15:26:27.685Z,8.28
2023-04-16T15:31:50.667Z,8.23
2023-04-16T15:37:12.935Z,8.22
2023-04-16T15:42:36.449Z,8.24
2023-04-16T15:47:58.777Z,8.23
2023-04-16T15:53:21.256Z,8.23
2023-04-16T15:58:43.630Z,8.21
2023-04-16T16:04:06.979Z,8.22
2023-04-16T16:09:29.770Z,8.22
2023-04-16T16:14:52.183Z,8.22
2023-04-16T16:20:15.091Z,8.19
2023-04-16T16:25:37.621Z,8.16
2023-04-16T16:31:01.708Z,8.13
2023-04-16T16:36:24.906Z,8.14
2023-04-16T16:41:49.164Z,8.08
2023-04-16T16:47:11.468Z,8.01
2023-04-16T16:52:41.322Z,7.96
2023-04-16T16:58:05.743Z,7.93
2023-04-16T17:03:29.896Z,7.87
2023-04-16T17:08:55.520Z,7.84
2023-04-16T17:14:20.171Z,7.82
2023-04-16T17:19:44.848Z,7.81
2023-04-16T17:25:09.665Z,7.80
2023-04-16T17:30:33.998Z,7.90
2023-04-16T17:35:59.937Z,7.72
2023-04-16T17:41:23.040Z,7.64
2023-04-16T17:46:46.380Z,7.54
2023-04-16T17:52:08.801Z,7.49
2023-04-16T17:57:32.281Z,7.38
2023-04-16T18:02:56.398Z,7.35
2023-04-16T18:08:20.746Z,7.29
2023-04-16T18:13:44.290Z,7.25
2023-04-16T18:19:08.234Z,7.22
2023-04-16T18:24:34.582Z,7.17
2023-04-16T18:29:59.502Z,7.14
2023-04-16T18:35:23.457Z,7.13
2023-04-16T18:40:50.130Z,7.10
2023-04-16T18:46:14.748Z,7.05
2023-04-16T18:51:38.781Z,7.02
2023-04-16T18:57:02.875Z,6.96
2023-04-16T19:02:25.421Z,6.92
2023-04-16T19:07:48.032Z,6.88
2023-04-16T19:13:10.348Z,6.87
2023-04-16T19:18:34.051Z,6.80
2023-04-16T19:23:59.076Z,6.74
2023-04-16T19:29:22.118Z,6.70
2023-04-16T19:34:47.407Z,6.68
2023-04-16T19:40:10.766Z,6.66
2023-04-16T19:45:33.360Z,6.63
2023-04-16T19:50:59.582Z,6.60
2023-04-16T19:56:24.341Z,6.55
2023-04-16T20:01:49.031Z,6.57
2023-04-16T20:07:13.778Z,6.55
2023-04-16T20:12:38.625Z,6.54
2023-04-16T20:18:02.921Z,6.48
2023-04-16T20:23:27.444Z,6.47
2023-04-16T20:28:51.908Z,6.39
2023-04-16T20:34:16.999Z,6.38
2023-04-16T20:39:42.577Z,6.36
2023-04-16T20:45:05.923Z,6.34
2023-04-16T20:50:30.960Z,6.29
2023-04-16T20:55:56.346Z,6.29
2023-04-16T21:01:19.264Z,6.29
2023-04-16T21:06:43.887Z,6.29
2023-04-16T21:12:08.622Z,6.28
2023-04-16T21:17:33.528Z,6.25
2023-04-16T21:22:57.170Z,6.22
2023-04-16T21:28:21.511Z,6.21
2023-04-16T21:33:44.934Z,6.19
2023-04-16T21:39:09.036Z,6.13
2023-04-16T21:44:33.167Z,6.14
2023-04-16T21:49:56.676Z,6.14
2023-04-16T21:55:22.013Z,6.12
2023-04-16T22:00:47.547Z,6.11
2023-04-16T22:06:11.871Z,6.08
2023-04-16T22:11:36.842Z,6.10
2023-04-16T22:17:02.572Z,6.05
2023-04-16T22:22:26.502Z,6.05
2023-04-16T22:27:51.240Z,6.01
2023-04-16T22:33:15.897Z,6.00
2023-04-16T22:38:40.854Z,5.99
2023-04-16T22:44:04.645Z,5.98
2023-04-16T22:55:04.202Z,6.08
2023-04-16T23:00:27.506Z,5.95
2023-04-16T23:05:49.758Z,5.94
2023-04-16T23:11:12.307Z,5.90
2023-04-16T23:16:34.587Z,5.83
2023-04-16T23:21:56.863Z,5.78
2023-04-16T23:27:19.295Z,5.75
2023-04-16T23:32:42.004Z,5.74
2023-04-16T23:38:04.840Z,5.70
2023-04-16T23:43:27.279Z,5.64
2023-04-16T23:48:49.530Z,5.61
2023-04-16T23:54:11.853Z,5.56
2023-04-16T23:59:34.198Z,5.53
